sensor_id;sensor_type;location;lat;lon;timestamp;P1;durP1;ratioP1;P2;durP2;ratioP2
5521;SDS011;2783;48.730;8.006;2024-02-21T00:02:04;0.70;;;0.70;;
5521;SDS011;2783;48.730;8.006;2024-02-21T00:04:30;0.70;;;0.70;;
5521;SDS011;2783;48.730;8.006;2024-02-21T00:06:55;0.70;;;0.70;;
5521;SDS011;2783;48.730;8.006;2024-02-21T00:09:20;0.75;;;0.75;;
5521;SDS011;2783;48.730;8.006;2024-02-21T00:11:46;0.70;;;0.70;;
5521;SDS011;2783;48.730;8.006;2024-02-21T00:14:11;0.80;;;0.80;;
5521;SDS011;2783;48.730;8.006;2024-02-21T00:16:37;0.80;;;0.80;;
5521;SDS011;2783;48.730;8.006;2024-02-21T00:19:02;0.70;;;0.70;;
5521;SDS011;2783;48.730;8.006;2024-02-21T00:21:27;0.70;;;0.70;;
5521;SDS011;2783;48.730;8.006;2024-02-21T00:23:53;0.80;;;0.80;;
5521;SDS011;2783;48.730;8.006;2024-02-21T00:26:18;0.80;;;0.80;;
5521;SDS011;2783;48.730;8.006;2024-02-21T00:28:44;0.80;;;0.80;;
5521;SDS011;2783;48.730;8.006;2024-02-21T00:31:10;0.80;;;0.80;;
5521;SDS011;2783;48.730;8.006;2024-02-21T00:33:36;0.80;;;0.80;;
5521;SDS011;2783;48.730;8.006;2024-02-21T00:36:01;0.80;;;0.80;;
5521;SDS011;2783;48.730;8.006;2024-02-21T00:38:26;0.80;;;0.80;;
5521;SDS011;2783;48.730;8.006;2024-02-21T00:40:52;0.60;;;0.60;;
5521;SDS011;2783;48.730;8.006;2024-02-21T00:43:17;0.75;;;0.75;;
5521;SDS011;2783;48.730;8.006;2024-02-21T00:45:43;0.82;;;0.82;;
5521;SDS011;2783;48.730;8.006;2024-02-21T00:48:08;0.80;;;0.80;;
5521;SDS011;2783;48.730;8.006;2024-02-21T00:50:33;0.70;;;0.70;;
5521;SDS011;2783;48.730;8.006;2024-02-21T00:52:59;0.70;;;0.70;;
5521;SDS011;2783;48.730;8.006;2024-02-21T00:55:24;0.80;;;0.80;;
5521;SDS011;2783;48.730;8.006;2024-02-21T00:57:50;0.80;;;0.80;;
5521;SDS011;2783;48.730;8.006;2024-02-21T01:00:15;0.70;;;0.70;;
5521;SDS011;2783;48.730;8.006;2024-02-21T01:02:41;0.70;;;0.70;;
5521;SDS011;2783;48.730;8.006;2024-02-21T01:05:06;0.80;;;0.80;;
5521;SDS011;2783;48.730;8.006;2024-02-21T01:07:32;0.70;;;0.70;;
5521;SDS011;2783;48.730;8.006;2024-02-21T01:09:57;0.90;;;0.90;;
5521;SDS011;2783;48.730;8.006;2024-02-21T01:12:23;0.70;;;0.70;;
5521;SDS011;2783;48.730;8.006;2024-02-21T01:14:48;0.80;;;0.80;;
5521;SDS011;2783;48.730;8.006;2024-02-21T01:17:14;0.70;;;0.70;;
5521;SDS011;2783;48.730;8.006;2024-02-21T01:19:40;0.80;;;0.80;;
5521;SDS011;2783;48.730;8.006;2024-02-21T01:22:05;0.80;;;0.80;;
5521;SDS011;2783;48.730;8.006;2024-02-21T01:24:31;0.80;;;0.80;;
5521;SDS011;2783;48.730;8.006;2024-02-21T01:26:56;0.70;;;0.70;;
5521;SDS011;2783;48.730;8.006;2024-02-21T01:29:21;0.80;;;0.80;;
5521;SDS011;2783;48.730;8.006;2024-02-21T01:31:47;0.70;;;0.70;;
5521;SDS011;2783;48.730;8.006;2024-02-21T01:34:12;0.80;;;0.80;;
5521;SDS011;2783;48.730;8.006;2024-02-21T01:36:38;0.80;;;0.80;;
5521;SDS011;2783;48.730;8.006;2024-02-21T01:39:04;0.80;;;0.80;;
5521;SDS011;2783;48.730;8.006;2024-02-21T01:41:30;0.80;;;0.80;;
5521;SDS011;2783;48.730;8.006;2024-02-21T01:43:56;0.80;;;0.80;;
5521;SDS011;2783;48.730;8.006;2024-02-21T01:46:22;0.80;;;0.80;;
5521;SDS011;2783;48.730;8.006;2024-02-21T01:48:48;0.70;;;0.70;;
5521;SDS011;2783;48.730;8.006;2024-02-21T01:51:14;0.70;;;0.70;;
5521;SDS011;2783;48.730;8.006;2024-02-21T01:53:42;0.90;;;0.90;;
5521;SDS011;2783;48.730;8.006;2024-02-21T01:56:08;0.80;;;0.80;;
5521;SDS011;2783;48.730;8.006;2024-02-21T01:58:35;0.70;;;0.70;;
5521;SDS011;2783;48.730;8.006;2024-02-21T02:01:02;0.80;;;0.80;;
5521;SDS011;2783;48.730;8.006;2024-02-21T02:03:28;0.70;;;0.70;;
5521;SDS011;2783;48.730;8.006;2024-02-21T02:05:55;0.80;;;0.80;;
5521;SDS011;2783;48.730;8.006;2024-02-21T02:08:20;0.80;;;0.80;;
5521;SDS011;2783;48.730;8.006;2024-02-21T02:10:49;0.70;;;0.70;;
5521;SDS011;2783;48.730;8.006;2024-02-21T02:13:15;0.80;;;0.80;;
5521;SDS011;2783;48.730;8.006;2024-02-21T02:18:13;0.80;;;0.80;;
5521;SDS011;2783;48.730;8.006;2024-02-21T02:20:39;0.80;;;0.80;;
5521;SDS011;2783;48.730;8.006;2024-02-21T02:23:12;0.90;;;0.90;;
5521;SDS011;2783;48.730;8.006;2024-02-21T02:25:50;0.70;;;0.70;;
5521;SDS011;2783;48.730;8.006;2024-02-21T02:28:17;0.80;;;0.80;;
5521;SDS011;2783;48.730;8.006;2024-02-21T02:30:42;0.70;;;0.70;;
5521;SDS011;2783;48.730;8.006;2024-02-21T02:33:08;0.73;;;0.73;;
5521;SDS011;2783;48.730;8.006;2024-02-21T02:35:34;0.73;;;0.73;;
5521;SDS011;2783;48.730;8.006;2024-02-21T02:38:01;0.80;;;0.80;;
5521;SDS011;2783;48.730;8.006;2024-02-21T02:40:27;0.70;;;0.70;;
5521;SDS011;2783;48.730;8.006;2024-02-21T02:42:53;0.70;;;0.70;;
5521;SDS011;2783;48.730;8.006;2024-02-21T02:45:20;0.75;;;0.75;;
5521;SDS011;2783;48.730;8.006;2024-02-21T02:47:47;0.70;;;0.70;;
5521;SDS011;2783;48.730;8.006;2024-02-21T02:50:13;0.80;;;0.80;;
5521;SDS011;2783;48.730;8.006;2024-02-21T02:52:39;0.80;;;0.80;;
5521;SDS011;2783;48.730;8.006;2024-02-21T02:55:05;0.70;;;0.70;;
5521;SDS011;2783;48.730;8.006;2024-02-21T02:57:31;0.80;;;0.80;;
5521;SDS011;2783;48.730;8.006;2024-02-21T02:59:57;0.82;;;0.82;;
5521;SDS011;2783;48.730;8.006;2024-02-21T03:02:22;0.80;;;0.80;;
5521;SDS011;2783;48.730;8.006;2024-02-21T03:04:48;0.80;;;0.80;;
5521;SDS011;2783;48.730;8.006;2024-02-21T03:07:14;0.82;;;0.82;;
5521;SDS011;2783;48.730;8.006;2024-02-21T03:09:40;0.70;;;0.70;;
5521;SDS011;2783;48.730;8.006;2024-02-21T03:12:08;0.75;;;0.75;;
5521;SDS011;2783;48.730;8.006;2024-02-21T03:14:33;0.80;;;0.80;;
5521;SDS011;2783;48.730;8.006;2024-02-21T03:16:59;0.90;;;0.90;;
5521;SDS011;2783;48.730;8.006;2024-02-21T03:19:25;0.90;;;0.90;;
5521;SDS011;2783;48.730;8.006;2024-02-21T03:21:51;0.80;;;0.80;;
5521;SDS011;2783;48.730;8.006;2024-02-21T03:24:17;0.80;;;0.80;;
5521;SDS011;2783;48.730;8.006;2024-02-21T03:26:43;0.80;;;0.80;;
5521;SDS011;2783;48.730;8.006;2024-02-21T03:29:10;0.80;;;0.80;;
5521;SDS011;2783;48.730;8.006;2024-02-21T03:31:36;0.80;;;0.80;;
5521;SDS011;2783;48.730;8.006;2024-02-21T03:34:02;0.80;;;0.80;;
5521;SDS011;2783;48.730;8.006;2024-02-21T03:36:27;0.80;;;0.80;;
5521;SDS011;2783;48.730;8.006;2024-02-21T03:38:54;0.80;;;0.80;;
5521;SDS011;2783;48.730;8.006;2024-02-21T03:41:20;0.80;;;0.80;;
5521;SDS011;2783;48.730;8.006;2024-02-21T03:43:45;0.90;;;0.90;;
5521;SDS011;2783;48.730;8.006;2024-02-21T03:46:11;0.80;;;0.80;;
5521;SDS011;2783;48.730;8.006;2024-02-21T03:48:36;0.73;;;0.73;;
5521;SDS011;2783;48.730;8.006;2024-02-21T03:51:02;0.90;;;0.90;;
5521;SDS011;2783;48.730;8.006;2024-02-21T03:53:27;0.82;;;0.82;;
5521;SDS011;2783;48.730;8.006;2024-02-21T03:55:53;0.80;;;0.80;;
5521;SDS011;2783;48.730;8.006;2024-02-21T03:58:19;0.70;;;0.70;;
5521;SDS011;2783;48.730;8.006;2024-02-21T04:00:45;0.80;;;0.80;;
5521;SDS011;2783;48.730;8.006;2024-02-21T04:03:11;0.70;;;0.70;;
5521;SDS011;2783;48.730;8.006;2024-02-21T04:05:38;0.80;;;0.80;;
5521;SDS011;2783;48.730;8.006;2024-02-21T04:08:06;0.80;;;0.80;;
5521;SDS011;2783;48.730;8.006;2024-02-21T04:10:32;0.77;;;0.77;;
5521;SDS011;2783;48.730;8.006;2024-02-21T04:12:58;0.80;;;0.80;;
5521;SDS011;2783;48.730;8.006;2024-02-21T04:15:23;0.70;;;0.70;;
5521;SDS011;2783;48.730;8.006;2024-02-21T04:17:49;0.90;;;0.90;;
5521;SDS011;2783;48.730;8.006;2024-02-21T04:20:16;0.65;;;0.65;;
5521;SDS011;2783;48.730;8.006;2024-02-21T04:22:45;0.73;;;0.73;;
5521;SDS011;2783;48.730;8.006;2024-02-21T04:25:11;0.80;;;0.80;;
5521;SDS011;2783;48.730;8.006;2024-02-21T04:27:37;0.75;;;0.75;;
5521;SDS011;2783;48.730;8.006;2024-02-21T04:30:04;0.80;;;0.80;;
5521;SDS011;2783;48.730;8.006;2024-02-21T04:32:29;0.90;;;0.90;;
5521;SDS011;2783;48.730;8.006;2024-02-21T04:34:55;0.90;;;0.90;;
5521;SDS011;2783;48.730;8.006;2024-02-21T04:37:20;0.88;;;0.88;;
5521;SDS011;2783;48.730;8.006;2024-02-21T04:39:46;0.80;;;0.80;;
5521;SDS011;2783;48.730;8.006;2024-02-21T04:42:13;0.80;;;0.80;;
5521;SDS011;2783;48.730;8.006;2024-02-21T04:44:38;0.80;;;0.80;;
5521;SDS011;2783;48.730;8.006;2024-02-21T04:47:04;0.80;;;0.80;;
5521;SDS011;2783;48.730;8.006;2024-02-21T04:49:29;0.80;;;0.80;;
5521;SDS011;2783;48.730;8.006;2024-02-21T04:51:55;0.80;;;0.80;;
5521;SDS011;2783;48.730;8.006;2024-02-21T04:54:20;0.85;;;0.85;;
5521;SDS011;2783;48.730;8.006;2024-02-21T04:56:46;0.80;;;0.80;;
5521;SDS011;2783;48.730;8.006;2024-02-21T04:59:11;0.70;;;0.70;;
5521;SDS011;2783;48.730;8.006;2024-02-21T05:01:36;0.70;;;0.70;;
5521;SDS011;2783;48.730;8.006;2024-02-21T05:04:02;0.80;;;0.80;;
5521;SDS011;2783;48.730;8.006;2024-02-21T05:06:27;0.70;;;0.70;;
5521;SDS011;2783;48.730;8.006;2024-02-21T05:08:53;0.80;;;0.80;;
5521;SDS011;2783;48.730;8.006;2024-02-21T05:11:20;0.80;;;0.80;;
5521;SDS011;2783;48.730;8.006;2024-02-21T05:13:46;0.80;;;0.80;;
5521;SDS011;2783;48.730;8.006;2024-02-21T05:16:12;0.80;;;0.80;;
5521;SDS011;2783;48.730;8.006;2024-02-21T05:18:38;0.90;;;0.90;;
5521;SDS011;2783;48.730;8.006;2024-02-21T05:21:03;0.88;;;0.88;;
5521;SDS011;2783;48.730;8.006;2024-02-21T05:23:29;0.93;;;0.93;;
5521;SDS011;2783;48.730;8.006;2024-02-21T05:25:55;0.90;;;0.90;;
5521;SDS011;2783;48.730;8.006;2024-02-21T05:28:20;0.80;;;0.80;;
5521;SDS011;2783;48.730;8.006;2024-02-21T05:30:45;0.95;;;0.95;;
5521;SDS011;2783;48.730;8.006;2024-02-21T05:33:11;0.90;;;0.90;;
5521;SDS011;2783;48.730;8.006;2024-02-21T05:35:37;0.77;;;0.77;;
5521;SDS011;2783;48.730;8.006;2024-02-21T05:38:03;0.90;;;0.90;;
5521;SDS011;2783;48.730;8.006;2024-02-21T05:40:36;0.80;;;0.80;;
5521;SDS011;2783;48.730;8.006;2024-02-21T05:43:01;0.80;;;0.80;;
5521;SDS011;2783;48.730;8.006;2024-02-21T05:45:27;0.95;;;0.95;;
5521;SDS011;2783;48.730;8.006;2024-02-21T05:47:52;0.90;;;0.90;;
5521;SDS011;2783;48.730;8.006;2024-02-21T05:50:18;0.90;;;0.90;;
5521;SDS011;2783;48.730;8.006;2024-02-21T05:52:43;0.80;;;0.80;;
5521;SDS011;2783;48.730;8.006;2024-02-21T05:55:09;0.90;;;0.90;;
5521;SDS011;2783;48.730;8.006;2024-02-21T05:57:34;0.93;;;0.93;;
5521;SDS011;2783;48.730;8.006;2024-02-21T06:00:00;0.70;;;0.70;;
5521;SDS011;2783;48.730;8.006;2024-02-21T06:02:28;0.80;;;0.80;;
5521;SDS011;2783;48.730;8.006;2024-02-21T06:04:53;0.70;;;0.70;;
5521;SDS011;2783;48.730;8.006;2024-02-21T06:07:18;0.90;;;0.90;;
5521;SDS011;2783;48.730;8.006;2024-02-21T06:09:44;0.88;;;0.88;;
5521;SDS011;2783;48.730;8.006;2024-02-21T06:12:09;0.90;;;0.90;;
5521;SDS011;2783;48.730;8.006;2024-02-21T06:14:35;1.00;;;1.00;;
5521;SDS011;2783;48.730;8.006;2024-02-21T06:17:00;0.90;;;0.90;;
5521;SDS011;2783;48.730;8.006;2024-02-21T06:19:26;0.80;;;0.80;;
5521;SDS011;2783;48.730;8.006;2024-02-21T06:21:51;0.70;;;0.70;;
5521;SDS011;2783;48.730;8.006;2024-02-21T06:24:16;0.73;;;0.73;;
5521;SDS011;2783;48.730;8.006;2024-02-21T06:26:42;0.90;;;0.90;;
5521;SDS011;2783;48.730;8.006;2024-02-21T06:29:08;0.85;;;0.85;;
5521;SDS011;2783;48.730;8.006;2024-02-21T06:31:34;0.90;;;0.90;;
5521;SDS011;2783;48.730;8.006;2024-02-21T06:34:00;0.80;;;0.80;;
5521;SDS011;2783;48.730;8.006;2024-02-21T06:36:26;0.80;;;0.80;;
5521;SDS011;2783;48.730;8.006;2024-02-21T06:38:51;0.70;;;0.70;;
5521;SDS011;2783;48.730;8.006;2024-02-21T06:41:19;0.82;;;0.82;;
5521;SDS011;2783;48.730;8.006;2024-02-21T06:43:45;0.80;;;0.80;;
5521;SDS011;2783;48.730;8.006;2024-02-21T06:46:12;0.90;;;0.90;;
5521;SDS011;2783;48.730;8.006;2024-02-21T06:48:37;0.80;;;0.80;;
5521;SDS011;2783;48.730;8.006;2024-02-21T06:51:03;0.93;;;0.93;;
5521;SDS011;2783;48.730;8.006;2024-02-21T06:53:29;0.90;;;0.90;;
5521;SDS011;2783;48.730;8.006;2024-02-21T06:55:54;0.80;;;0.80;;
5521;SDS011;2783;48.730;8.006;2024-02-21T06:58:20;0.73;;;0.73;;
5521;SDS011;2783;48.730;8.006;2024-02-21T07:00:45;0.90;;;0.90;;
5521;SDS011;2783;48.730;8.006;2024-02-21T07:03:10;0.70;;;0.70;;
5521;SDS011;2783;48.730;8.006;2024-02-21T07:05:36;0.80;;;0.80;;
5521;SDS011;2783;48.730;8.006;2024-02-21T07:08:02;0.90;;;0.90;;
5521;SDS011;2783;48.730;8.006;2024-02-21T07:10:28;0.80;;;0.80;;
5521;SDS011;2783;48.730;8.006;2024-02-21T07:12:54;0.88;;;0.88;;
5521;SDS011;2783;48.730;8.006;2024-02-21T07:15:20;0.80;;;0.80;;
5521;SDS011;2783;48.730;8.006;2024-02-21T07:17:46;0.80;;;0.80;;
5521;SDS011;2783;48.730;8.006;2024-02-21T07:20:11;0.80;;;0.80;;
5521;SDS011;2783;48.730;8.006;2024-02-21T07:22:37;0.88;;;0.88;;
5521;SDS011;2783;48.730;8.006;2024-02-21T07:25:02;0.75;;;0.75;;
5521;SDS011;2783;48.730;8.006;2024-02-21T07:27:28;0.80;;;0.80;;
5521;SDS011;2783;48.730;8.006;2024-02-21T07:29:56;0.80;;;0.80;;
5521;SDS011;2783;48.730;8.006;2024-02-21T07:32:22;0.80;;;0.80;;
5521;SDS011;2783;48.730;8.006;2024-02-21T07:34:47;0.90;;;0.90;;
5521;SDS011;2783;48.730;8.006;2024-02-21T07:37:12;0.70;;;0.70;;
5521;SDS011;2783;48.730;8.006;2024-02-21T07:39:38;0.80;;;0.80;;
5521;SDS011;2783;48.730;8.006;2024-02-21T07:42:03;0.80;;;0.80;;
5521;SDS011;2783;48.730;8.006;2024-02-21T07:44:29;0.80;;;0.80;;
5521;SDS011;2783;48.730;8.006;2024-02-21T07:46:56;0.90;;;0.90;;
5521;SDS011;2783;48.730;8.006;2024-02-21T07:49:22;0.80;;;0.80;;
5521;SDS011;2783;48.730;8.006;2024-02-21T07:51:47;0.80;;;0.80;;
5521;SDS011;2783;48.730;8.006;2024-02-21T07:54:13;0.73;;;0.73;;
5521;SDS011;2783;48.730;8.006;2024-02-21T07:56:38;0.80;;;0.80;;
5521;SDS011;2783;48.730;8.006;2024-02-21T07:59:03;0.80;;;0.80;;
5521;SDS011;2783;48.730;8.006;2024-02-21T08:01:29;0.70;;;0.70;;
5521;SDS011;2783;48.730;8.006;2024-02-21T08:03:54;0.77;;;0.77;;
5521;SDS011;2783;48.730;8.006;2024-02-21T08:06:20;0.70;;;0.70;;
5521;SDS011;2783;48.730;8.006;2024-02-21T08:08:45;0.70;;;0.70;;
5521;SDS011;2783;48.730;8.006;2024-02-21T08:11:10;0.68;;;0.68;;
5521;SDS011;2783;48.730;8.006;2024-02-21T08:13:36;0.70;;;0.70;;
5521;SDS011;2783;48.730;8.006;2024-02-21T08:16:01;0.70;;;0.70;;
5521;SDS011;2783;48.730;8.006;2024-02-21T08:18:28;0.80;;;0.80;;
5521;SDS011;2783;48.730;8.006;2024-02-21T08:20:53;0.80;;;0.80;;
5521;SDS011;2783;48.730;8.006;2024-02-21T08:23:19;0.80;;;0.80;;
5521;SDS011;2783;48.730;8.006;2024-02-21T08:25:44;0.60;;;0.60;;
5521;SDS011;2783;48.730;8.006;2024-02-21T08:28:10;0.70;;;0.70;;
5521;SDS011;2783;48.730;8.006;2024-02-21T08:30:35;0.70;;;0.70;;
5521;SDS011;2783;48.730;8.006;2024-02-21T08:33:01;0.70;;;0.70;;
5521;SDS011;2783;48.730;8.006;2024-02-21T08:35:26;0.80;;;0.80;;
5521;SDS011;2783;48.730;8.006;2024-02-21T08:37:51;0.70;;;0.70;;
5521;SDS011;2783;48.730;8.006;2024-02-21T08:40:17;0.70;;;0.70;;
5521;SDS011;2783;48.730;8.006;2024-02-21T08:42:45;0.80;;;0.80;;
5521;SDS011;2783;48.730;8.006;2024-02-21T08:45:11;0.77;;;0.77;;
5521;SDS011;2783;48.730;8.006;2024-02-21T08:47:40;0.70;;;0.70;;
5521;SDS011;2783;48.730;8.006;2024-02-21T08:50:06;0.70;;;0.70;;
5521;SDS011;2783;48.730;8.006;2024-02-21T08:52:32;0.80;;;0.80;;
5521;SDS011;2783;48.730;8.006;2024-02-21T08:54:58;0.80;;;0.80;;
5521;SDS011;2783;48.730;8.006;2024-02-21T08:57:23;0.80;;;0.80;;
5521;SDS011;2783;48.730;8.006;2024-02-21T08:59:49;0.75;;;0.75;;
5521;SDS011;2783;48.730;8.006;2024-02-21T09:02:14;0.70;;;0.70;;
5521;SDS011;2783;48.730;8.006;2024-02-21T09:04:42;0.70;;;0.70;;
5521;SDS011;2783;48.730;8.006;2024-02-21T09:07:09;0.80;;;0.80;;
5521;SDS011;2783;48.730;8.006;2024-02-21T09:09:36;0.80;;;0.80;;
5521;SDS011;2783;48.730;8.006;2024-02-21T09:12:04;0.70;;;0.70;;
5521;SDS011;2783;48.730;8.006;2024-02-21T09:14:31;0.80;;;0.80;;
5521;SDS011;2783;48.730;8.006;2024-02-21T09:16:57;0.73;;;0.73;;
5521;SDS011;2783;48.730;8.006;2024-02-21T09:19:22;0.70;;;0.70;;
5521;SDS011;2783;48.730;8.006;2024-02-21T09:21:48;0.70;;;0.70;;
5521;SDS011;2783;48.730;8.006;2024-02-21T09:24:14;0.70;;;0.70;;
5521;SDS011;2783;48.730;8.006;2024-02-21T09:26:39;0.70;;;0.70;;
5521;SDS011;2783;48.730;8.006;2024-02-21T09:29:05;0.70;;;0.70;;
5521;SDS011;2783;48.730;8.006;2024-02-21T09:31:30;0.70;;;0.70;;
5521;SDS011;2783;48.730;8.006;2024-02-21T09:33:56;0.70;;;0.70;;
5521;SDS011;2783;48.730;8.006;2024-02-21T09:36:21;0.70;;;0.70;;
5521;SDS011;2783;48.730;8.006;2024-02-21T09:38:46;0.60;;;0.60;;
5521;SDS011;2783;48.730;8.006;2024-02-21T09:41:15;0.60;;;0.60;;
5521;SDS011;2783;48.730;8.006;2024-02-21T09:43:45;0.70;;;0.70;;
5521;SDS011;2783;48.730;8.006;2024-02-21T09:46:17;0.55;;;0.55;;
5521;SDS011;2783;48.730;8.006;2024-02-21T09:51:23;0.60;;;0.60;;
5521;SDS011;2783;48.730;8.006;2024-02-21T09:53:51;0.50;;;0.50;;
5521;SDS011;2783;48.730;8.006;2024-02-21T09:56:18;0.60;;;0.60;;
5521;SDS011;2783;48.730;8.006;2024-02-21T09:58:44;0.68;;;0.68;;
5521;SDS011;2783;48.730;8.006;2024-02-21T10:01:11;0.70;;;0.70;;
5521;SDS011;2783;48.730;8.006;2024-02-21T10:03:37;0.70;;;0.70;;
5521;SDS011;2783;48.730;8.006;2024-02-21T10:06:03;0.60;;;0.60;;
5521;SDS011;2783;48.730;8.006;2024-02-21T10:08:28;0.60;;;0.60;;
5521;SDS011;2783;48.730;8.006;2024-02-21T10:10:54;0.70;;;0.70;;
5521;SDS011;2783;48.730;8.006;2024-02-21T10:13:27;0.60;;;0.60;;
5521;SDS011;2783;48.730;8.006;2024-02-21T10:16:06;0.60;;;0.60;;
5521;SDS011;2783;48.730;8.006;2024-02-21T10:18:33;0.60;;;0.60;;
5521;SDS011;2783;48.730;8.006;2024-02-21T10:21:03;0.60;;;0.60;;
5521;SDS011;2783;48.730;8.006;2024-02-21T10:23:51;0.50;;;0.50;;
5521;SDS011;2783;48.730;8.006;2024-02-21T10:26:17;0.60;;;0.60;;
5521;SDS011;2783;48.730;8.006;2024-02-21T10:28:44;0.50;;;0.50;;
5521;SDS011;2783;48.730;8.006;2024-02-21T10:31:20;0.57;;;0.57;;
5521;SDS011;2783;48.730;8.006;2024-02-21T10:33:53;0.60;;;0.60;;
5521;SDS011;2783;48.730;8.006;2024-02-21T10:36:25;0.60;;;0.60;;
5521;SDS011;2783;48.730;8.006;2024-02-21T10:38:53;0.70;;;0.70;;
5521;SDS011;2783;48.730;8.006;2024-02-21T10:41:20;0.60;;;0.60;;
5521;SDS011;2783;48.730;8.006;2024-02-21T10:43:48;0.60;;;0.60;;
5521;SDS011;2783;48.730;8.006;2024-02-21T10:46:24;0.68;;;0.68;;
5521;SDS011;2783;48.730;8.006;2024-02-21T10:48:54;0.60;;;0.60;;
5521;SDS011;2783;48.730;8.006;2024-02-21T10:51:28;0.50;;;0.50;;
5521;SDS011;2783;48.730;8.006;2024-02-21T10:54:02;0.50;;;0.50;;
5521;SDS011;2783;48.730;8.006;2024-02-21T10:56:36;0.50;;;0.50;;
5521;SDS011;2783;48.730;8.006;2024-02-21T10:59:06;0.50;;;0.50;;
5521;SDS011;2783;48.730;8.006;2024-02-21T11:01:32;0.50;;;0.50;;
5521;SDS011;2783;48.730;8.006;2024-02-21T11:04:03;0.50;;;0.50;;
5521;SDS011;2783;48.730;8.006;2024-02-21T11:06:31;0.50;;;0.50;;
5521;SDS011;2783;48.730;8.006;2024-02-21T11:11:40;0.50;;;0.50;;
5521;SDS011;2783;48.730;8.006;2024-02-21T11:14:08;0.60;;;0.60;;
5521;SDS011;2783;48.730;8.006;2024-02-21T11:16:40;0.50;;;0.50;;
5521;SDS011;2783;48.730;8.006;2024-02-21T11:19:07;0.60;;;0.60;;
5521;SDS011;2783;48.730;8.006;2024-02-21T11:21:35;0.50;;;0.50;;
5521;SDS011;2783;48.730;8.006;2024-02-21T11:24:01;0.50;;;0.50;;
5521;SDS011;2783;48.730;8.006;2024-02-21T11:26:28;0.50;;;0.50;;
5521;SDS011;2783;48.730;8.006;2024-02-21T11:29:00;0.60;;;0.60;;
5521;SDS011;2783;48.730;8.006;2024-02-21T11:31:43;0.60;;;0.60;;
5521;SDS011;2783;48.730;8.006;2024-02-21T11:34:12;0.47;;;0.47;;
5521;SDS011;2783;48.730;8.006;2024-02-21T11:36:51;0.50;;;0.50;;
5521;SDS011;2783;48.730;8.006;2024-02-21T11:39:21;0.50;;;0.50;;
5521;SDS011;2783;48.730;8.006;2024-02-21T11:42:02;0.57;;;0.57;;
5521;SDS011;2783;48.730;8.006;2024-02-21T11:44:29;0.50;;;0.50;;
5521;SDS011;2783;48.730;8.006;2024-02-21T11:46:55;0.50;;;0.50;;
5521;SDS011;2783;48.730;8.006;2024-02-21T11:49:20;0.50;;;0.50;;
5521;SDS011;2783;48.730;8.006;2024-02-21T11:51:46;0.50;;;0.50;;
5521;SDS011;2783;48.730;8.006;2024-02-21T11:54:11;0.50;;;0.50;;
5521;SDS011;2783;48.730;8.006;2024-02-21T11:56:41;0.60;;;0.60;;
5521;SDS011;2783;48.730;8.006;2024-02-21T11:59:06;0.50;;;0.50;;
5521;SDS011;2783;48.730;8.006;2024-02-21T12:01:32;0.50;;;0.50;;
5521;SDS011;2783;48.730;8.006;2024-02-21T12:03:57;0.60;;;0.60;;
5521;SDS011;2783;48.730;8.006;2024-02-21T12:06:22;0.60;;;0.60;;
5521;SDS011;2783;48.730;8.006;2024-02-21T12:08:48;0.50;;;0.50;;
5521;SDS011;2783;48.730;8.006;2024-02-21T12:11:20;0.60;;;0.60;;
5521;SDS011;2783;48.730;8.006;2024-02-21T12:14:09;0.50;;;0.50;;
5521;SDS011;2783;48.730;8.006;2024-02-21T12:16:34;0.60;;;0.60;;
5521;SDS011;2783;48.730;8.006;2024-02-21T12:19:01;0.50;;;0.50;;
5521;SDS011;2783;48.730;8.006;2024-02-21T12:21:31;0.50;;;0.50;;
5521;SDS011;2783;48.730;8.006;2024-02-21T12:23:59;0.50;;;0.50;;
5521;SDS011;2783;48.730;8.006;2024-02-21T12:26:25;0.50;;;0.50;;
5521;SDS011;2783;48.730;8.006;2024-02-21T12:28:51;0.60;;;0.60;;
5521;SDS011;2783;48.730;8.006;2024-02-21T12:31:18;0.50;;;0.50;;
5521;SDS011;2783;48.730;8.006;2024-02-21T12:33:43;0.60;;;0.60;;
5521;SDS011;2783;48.730;8.006;2024-02-21T12:36:09;0.57;;;0.57;;
5521;SDS011;2783;48.730;8.006;2024-02-21T12:38:35;0.52;;;0.52;;
5521;SDS011;2783;48.730;8.006;2024-02-21T12:41:01;0.60;;;0.60;;
5521;SDS011;2783;48.730;8.006;2024-02-21T12:43:26;0.52;;;0.52;;
5521;SDS011;2783;48.730;8.006;2024-02-21T12:45:52;0.50;;;0.50;;
5521;SDS011;2783;48.730;8.006;2024-02-21T12:48:18;0.50;;;0.50;;
5521;SDS011;2783;48.730;8.006;2024-02-21T12:50:50;0.50;;;0.50;;
5521;SDS011;2783;48.730;8.006;2024-02-21T12:53:16;0.50;;;0.50;;
5521;SDS011;2783;48.730;8.006;2024-02-21T12:55:44;0.50;;;0.50;;
5521;SDS011;2783;48.730;8.006;2024-02-21T12:58:11;0.57;;;0.57;;
5521;SDS011;2783;48.730;8.006;2024-02-21T13:00:36;0.60;;;0.60;;
5521;SDS011;2783;48.730;8.006;2024-02-21T13:03:03;0.50;;;0.50;;
5521;SDS011;2783;48.730;8.006;2024-02-21T13:05:28;0.50;;;0.50;;
5521;SDS011;2783;48.730;8.006;2024-02-21T13:07:54;0.50;;;0.50;;
5521;SDS011;2783;48.730;8.006;2024-02-21T13:10:19;0.50;;;0.50;;
5521;SDS011;2783;48.730;8.006;2024-02-21T13:12:45;0.47;;;0.47;;
5521;SDS011;2783;48.730;8.006;2024-02-21T13:15:10;0.50;;;0.50;;
5521;SDS011;2783;48.730;8.006;2024-02-21T13:17:37;0.50;;;0.50;;
5521;SDS011;2783;48.730;8.006;2024-02-21T13:20:02;0.50;;;0.50;;
5521;SDS011;2783;48.730;8.006;2024-02-21T13:22:28;0.50;;;0.50;;
5521;SDS011;2783;48.730;8.006;2024-02-21T13:24:54;0.50;;;0.50;;
5521;SDS011;2783;48.730;8.006;2024-02-21T13:27:19;0.60;;;0.60;;
5521;SDS011;2783;48.730;8.006;2024-02-21T13:29:44;0.60;;;0.60;;
5521;SDS011;2783;48.730;8.006;2024-02-21T13:32:10;0.50;;;0.50;;
5521;SDS011;2783;48.730;8.006;2024-02-21T13:34:36;0.50;;;0.50;;
5521;SDS011;2783;48.730;8.006;2024-02-21T13:37:01;0.50;;;0.50;;
5521;SDS011;2783;48.730;8.006;2024-02-21T13:39:27;0.50;;;0.50;;
5521;SDS011;2783;48.730;8.006;2024-02-21T13:41:52;0.50;;;0.50;;
5521;SDS011;2783;48.730;8.006;2024-02-21T13:44:18;0.50;;;0.50;;
5521;SDS011;2783;48.730;8.006;2024-02-21T13:46:44;0.50;;;0.50;;
5521;SDS011;2783;48.730;8.006;2024-02-21T13:49:09;0.50;;;0.50;;
5521;SDS011;2783;48.730;8.006;2024-02-21T13:51:35;0.60;;;0.60;;
5521;SDS011;2783;48.730;8.006;2024-02-21T13:54:03;0.60;;;0.60;;
5521;SDS011;2783;48.730;8.006;2024-02-21T13:56:29;0.50;;;0.50;;
5521;SDS011;2783;48.730;8.006;2024-02-21T13:58:56;0.50;;;0.50;;
5521;SDS011;2783;48.730;8.006;2024-02-21T14:01:22;0.57;;;0.57;;
5521;SDS011;2783;48.730;8.006;2024-02-21T14:03:48;0.60;;;0.60;;
5521;SDS011;2783;48.730;8.006;2024-02-21T14:06:13;0.50;;;0.50;;
5521;SDS011;2783;48.730;8.006;2024-02-21T14:08:39;0.50;;;0.50;;
5521;SDS011;2783;48.730;8.006;2024-02-21T14:11:05;0.50;;;0.50;;
5521;SDS011;2783;48.730;8.006;2024-02-21T14:13:31;0.60;;;0.60;;
5521;SDS011;2783;48.730;8.006;2024-02-21T14:15:56;0.50;;;0.50;;
5521;SDS011;2783;48.730;8.006;2024-02-21T14:18:22;0.50;;;0.50;;
5521;SDS011;2783;48.730;8.006;2024-02-21T14:20:47;0.47;;;0.47;;
5521;SDS011;2783;48.730;8.006;2024-02-21T14:23:13;0.50;;;0.50;;
5521;SDS011;2783;48.730;8.006;2024-02-21T14:25:39;0.60;;;0.60;;
5521;SDS011;2783;48.730;8.006;2024-02-21T14:28:04;0.50;;;0.50;;
5521;SDS011;2783;48.730;8.006;2024-02-21T14:30:30;0.50;;;0.50;;
5521;SDS011;2783;48.730;8.006;2024-02-21T14:32:56;0.50;;;0.50;;
5521;SDS011;2783;48.730;8.006;2024-02-21T14:35:21;0.50;;;0.50;;
5521;SDS011;2783;48.730;8.006;2024-02-21T14:37:47;0.50;;;0.50;;
5521;SDS011;2783;48.730;8.006;2024-02-21T14:40:14;0.60;;;0.60;;
5521;SDS011;2783;48.730;8.006;2024-02-21T14:42:39;0.50;;;0.50;;
5521;SDS011;2783;48.730;8.006;2024-02-21T14:45:05;0.50;;;0.50;;
5521;SDS011;2783;48.730;8.006;2024-02-21T14:47:31;0.50;;;0.50;;
5521;SDS011;2783;48.730;8.006;2024-02-21T14:49:57;0.50;;;0.50;;
5521;SDS011;2783;48.730;8.006;2024-02-21T14:52:23;0.40;;;0.40;;
5521;SDS011;2783;48.730;8.006;2024-02-21T14:54:50;0.50;;;0.50;;
5521;SDS011;2783;48.730;8.006;2024-02-21T14:57:19;0.50;;;0.50;;
5521;SDS011;2783;48.730;8.006;2024-02-21T14:59:46;0.60;;;0.60;;
5521;SDS011;2783;48.730;8.006;2024-02-21T15:02:13;0.50;;;0.50;;
5521;SDS011;2783;48.730;8.006;2024-02-21T15:04:39;0.40;;;0.40;;
5521;SDS011;2783;48.730;8.006;2024-02-21T15:07:04;0.50;;;0.50;;
5521;SDS011;2783;48.730;8.006;2024-02-21T15:09:29;0.50;;;0.50;;
5521;SDS011;2783;48.730;8.006;2024-02-21T15:11:55;0.50;;;0.50;;
5521;SDS011;2783;48.730;8.006;2024-02-21T15:14:20;0.50;;;0.50;;
5521;SDS011;2783;48.730;8.006;2024-02-21T15:16:46;0.50;;;0.50;;
5521;SDS011;2783;48.730;8.006;2024-02-21T15:19:11;0.50;;;0.50;;